Time;durP1;ratioP1;P1;durP2;ratioP2;P2;SDS_P1;SDS_P2;PMS_P1;PMS_P2;Temp;Humidity;BMP_temperature;BMP_pressure;BME280_temperature;BME280_humidity;BME280_pressure;Samples;Min_cycle;Max_cycle;Signal;HPM_P1;HPM_P2
2023/06/26 00:06:32;;;;;;;;;;;17.00;99.90;;;;;;21243359;27;19915;-77
2023/06/26 00:16:33;;;;;;;;;;;16.80;99.90;;;;;;21247978;27;19979;-77
2023/06/26 00:26:34;;;;;;;;;;;16.90;99.90;;;;;;21244807;27;19919;-78
2023/06/26 00:36:34;;;;;;;;;;;16.70;99.90;;;;;;21244496;27;20408;-77
2023/06/26 00:46:35;;;;;;;;;;;16.50;99.90;;;;;;21242658;27;19938;-77
2023/06/26 00:56:36;;;;;;;;;;;16.40;99.90;;;;;;21261616;27;20006;-77
2023/06/26 01:06:39;;;;;;;;;;;16.20;99.90;;;;;;21248646;27;20336;-78
2023/06/26 01:16:41;;;;;;;;;;;16.00;99.90;;;;;;21196894;27;20006;-77
2023/06/26 01:26:43;;;;;;;;;;;16.00;99.90;;;;;;21233834;27;19931;-78
2023/06/26 01:36:49;;;;;;;;;;;16.10;99.90;;;;;;21249806;27;19912;-78
2023/06/26 01:46:54;;;;;;;;;;;16.00;99.90;;;;;;21037435;22;19970;-75
2023/06/26 01:56:55;;;;;;;;;;;16.00;99.90;;;;;;20935467;28;19916;-74
2023/06/26 02:06:56;;;;;;;;;;;15.80;99.90;;;;;;20934406;28;20382;-74
2023/06/26 02:16:56;;;;;;;;;;;15.60;99.90;;;;;;20965839;28;19912;-74
2023/06/26 02:26:57;;;;;;;;;;;15.60;99.90;;;;;;21002283;28;19917;-74
2023/06/26 02:36:58;;;;;;;;;;;15.40;99.90;;;;;;21000446;28;20399;-74
2023/06/26 02:46:59;;;;;;;;;;;15.30;99.90;;;;;;20919574;28;19917;-74
2023/06/26 02:56:59;;;;;;;;;;;15.10;99.90;;;;;;20945305;28;20282;-74
2023/06/26 03:07:03;;;;;;;;;;;14.80;99.90;;;;;;20946118;28;19921;-74
2023/06/26 03:17:07;;;;;;;;;;;14.90;99.90;;;;;;20936046;28;20412;-74
2023/06/26 03:27:09;;;;;;;;;;;15.00;99.90;;;;;;20943947;28;19917;-74
2023/06/26 03:37:10;;;;;;;;;;;14.80;99.90;;;;;;20922520;28;19912;-75
2023/06/26 03:47:11;;;;;;;;;;;15.00;99.90;;;;;;20961804;28;19923;-74
2023/06/26 03:57:12;;;;;;;;;;;15.10;99.90;;;;;;20938707;28;19919;-75
2023/06/26 04:07:13;;;;;;;;;;;15.10;99.90;;;;;;20976764;28;19920;-75
2023/06/26 04:17:14;;;;;;;;;;;15.20;99.90;;;;;;20924155;28;19913;-75
2023/06/26 04:27:14;;;;;;;;;;;15.50;99.90;;;;;;20968368;28;19917;-76
2023/06/26 04:37:18;;;;;;;;;;;15.60;99.90;;;;;;20942640;28;20400;-75
2023/06/26 04:47:19;;;;;;;;;;;15.80;99.90;;;;;;20928244;28;19962;-74
2023/06/26 04:57:20;;;;;;;;;;;16.10;99.90;;;;;;20917064;28;20276;-75
2023/06/26 05:07:20;;;;;;;;;;;16.40;99.90;;;;;;20935794;28;20303;-75
2023/06/26 05:17:21;;;;;;;;;;;16.80;99.90;;;;;;20911833;28;19968;-75
2023/06/26 05:27:22;;;;;;;;;;;17.20;99.90;;;;;;20950710;28;20444;-75
2023/06/26 05:37:22;;;;;;;;;;;17.70;99.90;;;;;;20967715;28;19976;-75
2023/06/26 05:47:23;;;;;;;;;;;18.00;99.90;;;;;;20965597;28;20375;-75
2023/06/26 05:57:24;;;;;;;;;;;18.50;99.90;;;;;;21003544;28;19958;-76
2023/06/26 06:07:25;;;;;;;;;;;18.90;99.90;;;;;;21001900;28;19917;-76
2023/06/26 06:17:25;;;;;;;;;;;19.50;99.90;;;;;;20838245;28;19921;-75
2023/06/26 06:27:27;;;;;;;;;;;19.90;99.90;;;;;;20838604;28;19917;-75
2023/06/26 06:37:29;;;;;;;;;;;20.50;99.90;;;;;;20960997;28;19943;-76
2023/06/26 06:47:30;;;;;;;;;;;21.00;99.90;;;;;;20834282;28;19963;-76
2023/06/26 06:57:30;;;;;;;;;;;21.60;99.90;;;;;;20833769;28;20371;-76
2023/06/26 07:07:31;;;;;;;;;;;22.30;99.90;;;;;;20908102;28;20309;-75
2023/06/26 07:17:33;;;;;;;;;;;22.70;99.90;;;;;;20954854;28;19917;-76
2023/06/26 07:27:33;;;;;;;;;;;23.00;99.90;;;;;;20985813;28;20023;-75
2023/06/26 07:37:34;;;;;;;;;;;23.70;99.90;;;;;;20962439;28;19948;-75
2023/06/26 07:47:35;;;;;;;;;;;24.50;99.90;;;;;;20962704;22;19932;-77
2023/06/26 07:57:36;;;;;;;;;;;25.00;99.90;;;;;;20971634;28;19919;-77
2023/06/26 08:07:36;;;;;;;;;;;24.90;99.90;;;;;;20966209;28;19920;-77
2023/06/26 08:17:38;;;;;;;;;;;25.20;99.90;;;;;;20946168;28;19913;-76
2023/06/26 08:27:38;;;;;;;;;;;25.60;99.90;;;;;;20981138;28;19923;-77
2023/06/26 08:37:39;;;;;;;;;;;26.50;99.90;;;;;;21000208;28;19917;-77
2023/06/26 08:47:40;;;;;;;;;;;27.20;99.90;;;;;;20988602;28;19963;-76
2023/06/26 08:57:41;;;;;;;;;;;28.50;99.90;;;;;;20960950;28;19970;-76
2023/06/26 09:07:42;;;;;;;;;;;28.40;99.90;;;;;;20961177;28;19924;-77
2023/06/26 09:17:43;;;;;;;;;;;28.50;99.90;;;;;;20991051;28;19967;-77
2023/06/26 09:27:44;;;;;;;;;;;28.90;99.90;;;;;;20992759;28;19925;-77
2023/06/26 09:37:44;;;;;;;;;;;28.80;99.90;;;;;;20975067;28;20436;-76
2023/06/26 09:47:45;;;;;;;;;;;29.50;99.90;;;;;;20993545;28;19952;-77
2023/06/26 09:57:46;;;;;;;;;;;29.60;99.90;;;;;;21004348;28;19917;-76
2023/06/26 10:07:47;;;;;;;;;;;29.60;99.90;;;;;;21004785;28;19921;-77
2023/06/26 10:17:49;;;;;;;;;;;29.70;99.90;;;;;;20995178;28;19913;-76
2023/06/26 10:27:58;;;;;;;;;;;30.40;99.90;;;;;;20990605;28;20003;-76
2023/06/26 10:38:03;;;;;;;;;;;30.60;99.90;;;;;;21001460;28;19913;-77
2023/06/26 10:48:04;;;;;;;;;;;30.30;99.90;;;;;;20985281;28;19942;-76
2023/06/26 10:58:25;;;;;;;;;;;30.20;99.90;;;;;;20984762;28;20374;-77
2023/06/26 11:08:43;;;;;;;;;;;30.10;99.90;;;;;;20957942;28;19999;-76
2023/06/26 11:18:45;;;;;;;;;;;28.90;99.90;;;;;;20999932;28;20393;-76
2023/06/26 11:28:46;;;;;;;;;;;29.20;99.90;;;;;;20998268;28;19916;-77
2023/06/26 11:38:52;;;;;;;;;;;29.00;99.90;;;;;;20978812;28;20256;-76
2023/06/26 11:48:53;;;;;;;;;;;29.70;99.90;;;;;;20986962;28;19963;-77
2023/06/26 11:59:02;;;;;;;;;;;30.00;99.90;;;;;;20994790;28;19960;-77
2023/06/26 12:09:05;;;;;;;;;;;28.80;99.90;;;;;;20996031;28;20332;-77
2023/06/26 12:19:06;;;;;;;;;;;28.70;99.90;;;;;;20998341;28;19913;-76
2023/06/26 12:29:13;;;;;;;;;;;29.30;99.90;;;;;;20993765;28;19916;-77
2023/06/26 12:39:18;;;;;;;;;;;29.10;99.90;;;;;;20991527;28;19993;-76
2023/06/26 12:49:19;;;;;;;;;;;29.70;99.90;;;;;;20972814;28;20272;-77
2023/06/26 12:59:22;;;;;;;;;;;29.20;99.90;;;;;;20986731;28;19913;-76
2023/06/26 13:09:24;;;;;;;;;;;29.30;99.90;;;;;;20980086;28;19920;-77
2023/06/26 13:19:27;;;;;;;;;;;29.60;99.90;;;;;;20990544;28;20417;-76
2023/06/26 13:29:28;;;;;;;;;;;29.90;99.90;;;;;;20991043;28;19967;-75
2023/06/26 13:39:29;;;;;;;;;;;29.30;99.90;;;;;;20990297;28;19912;-76
2023/06/26 13:49:29;;;;;;;;;;;30.00;98.30;;;;;;21001266;22;20067;-75
2023/06/26 13:59:30;;;;;;;;;;;28.90;98.30;;;;;;20967938;28;19913;-75
2023/06/26 14:09:31;;;;;;;;;;;29.70;96.70;;;;;;20977893;28;19971;-75
2023/06/26 14:19:31;;;;;;;;;;;29.50;99.10;;;;;;20983523;28;19919;-75
2023/06/26 14:29:32;;;;;;;;;;;29.50;96.80;;;;;;20988358;28;20464;-74
2023/06/26 14:39:33;;;;;;;;;;;29.50;96.20;;;;;;20976274;28;20328;-75
2023/06/26 14:49:33;;;;;;;;;;;29.20;95.70;;;;;;20985999;28;19928;-75
2023/06/26 14:59:34;;;;;;;;;;;29.10;95.30;;;;;;20969173;28;20302;-75
2023/06/26 15:09:34;;;;;;;;;;;28.70;95.10;;;;;;20977153;28;19916;-75
2023/06/26 15:19:36;;;;;;;;;;;28.90;96.20;;;;;;20967367;28;19952;-74
2023/06/26 15:29:37;;;;;;;;;;;28.50;95.10;;;;;;20975557;28;19967;-74
2023/06/26 15:39:38;;;;;;;;;;;28.10;95.70;;;;;;20972632;28;19959;-74
2023/06/26 15:49:39;;;;;;;;;;;28.20;97.40;;;;;;20973159;28;20000;-74
2023/06/26 15:59:39;;;;;;;;;;;27.80;98.30;;;;;;20974951;28;20378;-75
2023/06/26 16:09:40;;;;;;;;;;;27.80;98.50;;;;;;20978277;28;19917;-75
2023/06/26 16:19:40;;;;;;;;;;;27.70;97.90;;;;;;20979627;28;19917;-75
2023/06/26 16:29:41;;;;;;;;;;;27.60;97.90;;;;;;20992696;28;19927;-73
2023/06/26 16:39:42;;;;;;;;;;;27.40;97.40;;;;;;20991383;28;19912;-73
2023/06/26 16:49:43;;;;;;;;;;;27.10;97.30;;;;;;20994924;28;19993;-73
2023/06/26 16:59:43;;;;;;;;;;;27.00;97.40;;;;;;20990814;28;19967;-73
2023/06/26 17:09:44;;;;;;;;;;;26.90;97.00;;;;;;20955463;28;20024;-74
2023/06/26 17:19:45;;;;;;;;;;;26.60;96.20;;;;;;20907024;28;19913;-74
2023/06/26 17:29:46;;;;;;;;;;;26.40;97.00;;;;;;20957862;28;19917;-74
2023/06/26 17:39:46;;;;;;;;;;;26.30;97.00;;;;;;20965732;28;19913;-74
2023/06/26 17:49:47;;;;;;;;;;;26.50;96.80;;;;;;20998923;28;19963;-73
2023/06/26 17:59:48;;;;;;;;;;;26.40;96.00;;;;;;21004610;28;19912;-74
2023/06/26 18:09:48;;;;;;;;;;;26.30;96.60;;;;;;21003557;28;19936;-74
2023/06/26 18:19:49;;;;;;;;;;;27.40;96.30;;;;;;21002661;28;19913;-73
2023/06/26 18:29:49;;;;;;;;;;;27.70;94.30;;;;;;21001907;28;19916;-74
2023/06/26 18:39:50;;;;;;;;;;;27.60;94.40;;;;;;21001491;28;19921;-74
2023/06/26 18:49:51;;;;;;;;;;;27.40;94.70;;;;;;20953276;28;20287;-74
2023/06/26 18:59:52;;;;;;;;;;;26.00;96.70;;;;;;20977397;28;19912;-74
2023/06/26 19:09:53;;;;;;;;;;;25.00;98.70;;;;;;20999455;28;20006;-73
2023/06/26 19:19:53;;;;;;;;;;;24.40;99.90;;;;;;20998909;28;19916;-75
2023/06/26 19:29:54;;;;;;;;;;;23.60;99.90;;;;;;20996698;28;19925;-74
2023/06/26 19:39:55;;;;;;;;;;;22.90;99.90;;;;;;20994841;28;19986;-73
2023/06/26 19:49:55;;;;;;;;;;;22.70;99.90;;;;;;20983705;28;19924;-73
2023/06/26 19:59:56;;;;;;;;;;;22.50;99.90;;;;;;20995606;28;20286;-74
2023/06/26 20:09:57;;;;;;;;;;;22.30;99.90;;;;;;20985847;28;19923;-73
2023/06/26 20:19:57;;;;;;;;;;;21.80;99.90;;;;;;20978167;28;19916;-74
2023/06/26 20:29:58;;;;;;;;;;;21.40;99.90;;;;;;20992488;28;19969;-74
2023/06/26 20:39:59;;;;;;;;;;;21.10;99.90;;;;;;20968372;28;20007;-74
2023/06/26 20:50:00;;;;;;;;;;;21.00;99.90;;;;;;20968624;28;19916;-74
2023/06/26 21:00:01;;;;;;;;;;;20.70;99.90;;;;;;20960243;28;19921;-74
2023/06/26 21:10:02;;;;;;;;;;;20.00;99.90;;;;;;20970181;28;20019;-75
2023/06/26 21:20:04;;;;;;;;;;;19.30;99.90;;;;;;20961145;28;20433;-75
2023/06/26 21:30:07;;;;;;;;;;;19.00;99.90;;;;;;20973479;28;20333;-75
2023/06/26 21:40:08;;;;;;;;;;;18.70;99.90;;;;;;20984353;28;20015;-74
2023/06/26 21:50:09;;;;;;;;;;;18.60;99.90;;;;;;20986332;28;19952;-74
2023/06/26 22:00:12;;;;;;;;;;;18.50;99.90;;;;;;20986893;28;19913;-74
2023/06/26 22:10:13;;;;;;;;;;;17.90;99.90;;;;;;20965385;28;19964;-74
2023/06/26 22:20:15;;;;;;;;;;;18.10;99.90;;;;;;20983980;28;19929;-74
2023/06/26 22:30:17;;;;;;;;;;;18.00;99.90;;;;;;20987485;28;19916;-74
2023/06/26 22:40:18;;;;;;;;;;;17.80;99.90;;;;;;20998993;28;19920;-74
2023/06/26 22:50:19;;;;;;;;;;;17.90;99.90;;;;;;20973709;28;19924;-74
2023/06/26 23:00:20;;;;;;;;;;;17.90;99.90;;;;;;20997283;28;19912;-75
2023/06/26 23:10:21;;;;;;;;;;;17.90;99.90;;;;;;20987291;28;19916;-75
2023/06/26 23:20:21;;;;;;;;;;;17.80;99.90;;;;;;20974554;28;20011;-74
2023/06/26 23:30:22;;;;;;;;;;;17.50;99.90;;;;;;20979337;28;20370;-74
2023/06/26 23:40:23;;;;;;;;;;;17.30;99.90;;;;;;20975078;28;20263;-74
2023/06/26 23:50:24;;;;;;;;;;;17.30;99.90;;;;;;20941576;28;19917;-74
